createdAt,value
2022-11-29T00:01:19.259Z,2.85
2022-11-29T00:03:22.605Z,2.79
2022-11-29T00:05:24.329Z,2.78
2022-11-29T00:07:25.993Z,2.77
2022-11-29T00:09:27.727Z,2.77
2022-11-29T00:11:30.259Z,2.83
2022-11-29T00:13:32.312Z,2.88
2022-11-29T00:15:36.049Z,2.88
2022-11-29T00:17:37.876Z,2.79
2022-11-29T00:19:41.150Z,2.99
2022-11-29T00:21:43.140Z,3.09
2022-11-29T00:23:44.764Z,3.08
2022-11-29T00:25:46.715Z,3.08
2022-11-29T00:27:48.983Z,3.20
2022-11-29T00:29:50.755Z,3.25
2022-11-29T00:31:52.663Z,3.25
2022-11-29T00:33:54.411Z,3.34
2022-11-29T00:36:00.349Z,3.35
2022-11-29T00:38:02.208Z,3.31
2022-11-29T00:40:04.574Z,3.33
2022-11-29T00:42:06.762Z,3.33
2022-11-29T00:44:09.369Z,3.28
2022-11-29T00:46:11.475Z,3.27
2022-11-29T00:48:13.167Z,3.27
2022-11-29T00:50:14.551Z,3.27
2022-11-29T00:52:20.562Z,3.27
2022-11-29T00:54:22.477Z,3.26
2022-11-29T00:56:24.605Z,3.29
2022-11-29T00:58:26.437Z,3.28
2022-11-29T01:00:28.257Z,3.30
2022-11-29T01:02:30.022Z,3.20
2022-11-29T01:04:31.760Z,3.13
2022-11-29T01:06:33.152Z,3.14
2022-11-29T01:08:36.437Z,3.14
2022-11-29T01:10:38.283Z,3.17
2022-11-29T01:12:40.581Z,3.10
2022-11-29T01:14:42.660Z,3.25
2022-11-29T01:16:44.593Z,3.20
2022-11-29T01:18:46.027Z,3.30
2022-11-29T01:20:56.073Z,3.28
2022-11-29T01:22:58.313Z,3.29
2022-11-29T01:25:01.282Z,3.28
2022-11-29T01:27:02.859Z,3.33
2022-11-29T01:29:04.996Z,3.30
2022-11-29T01:31:08.136Z,3.29
2022-11-29T01:33:09.718Z,3.27
2022-11-29T01:35:11.284Z,3.30
2022-11-29T01:37:12.825Z,3.32
2022-11-29T01:39:14.488Z,3.22
2022-11-29T01:41:19.710Z,3.20
2022-11-29T01:43:21.426Z,3.33
2022-11-29T01:45:23.397Z,3.27
2022-11-29T01:47:25.081Z,3.31
2022-11-29T01:49:27.852Z,3.21
2022-11-29T01:51:30.865Z,3.35
2022-11-29T01:53:33.198Z,3.34
2022-11-29T01:55:39.003Z,3.46
2022-11-29T01:57:43.528Z,3.47
2022-11-29T01:59:48.251Z,3.49
2022-11-29T02:01:49.827Z,3.43
2022-11-29T02:03:51.419Z,3.37
2022-11-29T02:05:54.787Z,3.37
2022-11-29T02:07:58.872Z,3.34
2022-11-29T02:10:02.157Z,3.33
2022-11-29T02:12:16.477Z,3.33
2022-11-29T02:14:47.384Z,3.35
2022-11-29T02:16:58.115Z,3.28
2022-11-29T02:19:11.553Z,3.23
2022-11-29T02:21:27.280Z,3.35
2022-11-29T02:24:07.168Z,3.34
2022-11-29T02:26:18.174Z,3.36
2022-11-29T02:28:49.641Z,3.11
2022-11-29T02:31:18.757Z,3.30
2022-11-29T02:33:49.667Z,3.37
2022-11-29T02:36:15.408Z,3.25
2022-11-29T02:38:41.413Z,3.36
2022-11-29T02:41:00.563Z,3.40
2022-11-29T02:43:15.092Z,3.40
2022-11-29T02:45:41.716Z,3.30
2022-11-29T02:47:55.118Z,3.34
2022-11-29T02:50:17.868Z,3.29
2022-11-29T02:52:25.109Z,3.34
2022-11-29T02:54:33.515Z,3.37
2022-11-29T02:56:43.557Z,3.25
2022-11-29T02:58:51.145Z,3.23
2022-11-29T03:01:08.500Z,3.27
2022-11-29T03:03:18.165Z,3.26
2022-11-29T03:05:29.596Z,3.31
2022-11-29T03:07:39.358Z,3.30
2022-11-29T03:09:54.644Z,3.40
2022-11-29T03:12:07.030Z,3.40
2022-11-29T03:14:17.232Z,3.34
2022-11-29T03:16:41.306Z,3.30
2022-11-29T03:18:56.204Z,3.24
2022-11-29T03:21:09.807Z,3.28
2022-11-29T03:23:22.139Z,3.32
2022-11-29T03:25:29.048Z,3.34
2022-11-29T03:27:38.340Z,3.32
2022-11-29T03:29:46.431Z,3.30
2022-11-29T03:31:51.292Z,3.34
2022-11-29T03:33:58.509Z,3.29
2022-11-29T03:36:09.203Z,3.16
2022-11-29T03:38:20.810Z,3.09
2022-11-29T03:40:28.846Z,3.10
2022-11-29T03:42:34.358Z,3.00
2022-11-29T03:44:40.250Z,3.01
2022-11-29T03:46:50.281Z,2.98
2022-11-29T03:48:56.039Z,3.01
2022-11-29T03:51:03.643Z,3.09
2022-11-29T03:53:14.491Z,3.08
2022-11-29T03:55:33.767Z,3.15
2022-11-29T03:57:48.413Z,3.15
2022-11-29T04:00:01.402Z,3.09
2022-11-29T04:02:20.832Z,3.10
2022-11-29T04:05:13.417Z,3.14
2022-11-29T04:07:22.886Z,3.11
2022-11-29T04:09:42.224Z,3.14
2022-11-29T04:12:02.869Z,3.13
2022-11-29T04:14:30.264Z,3.08
2022-11-29T04:17:05.483Z,3.03
2022-11-29T04:19:50.998Z,2.94
2022-11-29T04:22:24.649Z,3.00
2022-11-29T04:25:06.140Z,3.02
2022-11-29T04:27:40.712Z,3.06
2022-11-29T04:30:04.157Z,3.14
2022-11-29T04:32:34.611Z,3.13
2022-11-29T04:34:52.495Z,3.13
2022-11-29T04:37:23.642Z,3.21
2022-11-29T04:39:50.591Z,3.26
2022-11-29T04:42:25.663Z,3.32
2022-11-29T04:44:45.764Z,3.26
2022-11-29T04:47:00.144Z,3.24
2022-11-29T04:49:16.988Z,3.21
2022-11-29T04:51:33.820Z,3.16
2022-11-29T04:53:49.550Z,3.20
2022-11-29T04:56:01.503Z,3.22
2022-11-29T04:58:13.112Z,3.14
2022-11-29T05:00:19.152Z,3.18
2022-11-29T05:02:33.230Z,3.24
2022-11-29T05:04:44.804Z,3.28
2022-11-29T05:06:58.411Z,3.30
2022-11-29T05:09:10.632Z,3.28
2022-11-29T05:11:23.393Z,3.36
2022-11-29T05:13:39.084Z,3.39
2022-11-29T05:16:02.661Z,3.36
2022-11-29T05:18:13.014Z,3.46
2022-11-29T05:20:21.494Z,3.42
2022-11-29T05:22:31.526Z,3.47
2022-11-29T05:24:51.295Z,3.53
2022-11-29T05:27:01.712Z,3.54
2022-11-29T05:29:10.143Z,3.55
2022-11-29T05:31:24.872Z,3.50
2022-11-29T05:33:47.468Z,3.54
2022-11-29T05:35:52.621Z,3.60
2022-11-29T05:37:57.755Z,3.54
2022-11-29T05:40:19.892Z,3.55
2022-11-29T05:42:41.347Z,3.62
2022-11-29T05:44:48.592Z,3.63
2022-11-29T05:46:57.048Z,3.59
2022-11-29T05:49:08.503Z,3.45
2022-11-29T05:51:19.842Z,3.49
2022-11-29T05:53:24.741Z,3.50
2022-11-29T05:55:39.797Z,3.50
2022-11-29T05:57:47.890Z,3.51
2022-11-29T05:59:51.159Z,3.60
2022-11-29T06:02:01.557Z,3.62
2022-11-29T06:04:13.322Z,3.47
2022-11-29T06:06:22.593Z,3.50
2022-11-29T06:08:34.158Z,3.46
2022-11-29T06:10:38.643Z,3.41
2022-11-29T06:12:42.510Z,3.53
2022-11-29T06:15:05.577Z,3.58
2022-11-29T06:17:35.737Z,3.45
2022-11-29T06:19:58.418Z,3.47
2022-11-29T06:22:11.681Z,3.55
2022-11-29T06:24:30.482Z,3.56
2022-11-29T06:26:46.174Z,3.63
2022-11-29T06:29:00.657Z,3.64
2022-11-29T06:31:15.998Z,3.70
2022-11-29T06:33:22.485Z,3.65
2022-11-29T06:35:41.030Z,3.71
2022-11-29T06:37:48.859Z,3.70
2022-11-29T06:39:50.856Z,3.63
2022-11-29T06:41:52.547Z,3.63
2022-11-29T06:43:54.169Z,3.57
2022-11-29T06:46:00.583Z,3.56
2022-11-29T06:48:06.631Z,3.53
2022-11-29T06:50:26.906Z,3.72
2022-11-29T06:52:37.639Z,3.67
2022-11-29T06:54:54.516Z,3.63
2022-11-29T06:57:05.554Z,3.57
2022-11-29T06:59:29.215Z,3.62
2022-11-29T07:01:39.305Z,3.63
2022-11-29T07:03:57.516Z,3.65
2022-11-29T07:06:12.425Z,3.61
2022-11-29T07:08:16.327Z,3.70
2022-11-29T07:10:19.700Z,3.74
2022-11-29T07:12:22.030Z,3.64
2022-11-29T07:14:24.165Z,3.58
2022-11-29T07:16:30.820Z,3.62
2022-11-29T07:18:40.224Z,3.55
2022-11-29T07:20:53.163Z,3.65
2022-11-29T07:23:04.102Z,3.66
2022-11-29T07:25:18.211Z,3.79
2022-11-29T07:27:23.615Z,3.84
2022-11-29T07:29:39.658Z,3.90
2022-11-29T07:31:51.981Z,3.85
2022-11-29T07:34:04.798Z,3.82
2022-11-29T07:36:14.346Z,3.88
2022-11-29T07:38:26.708Z,3.91
2022-11-29T07:40:37.740Z,3.94
2022-11-29T07:42:50.381Z,4.04
2022-11-29T07:45:01.023Z,4.09
2022-11-29T07:47:02.826Z,3.95
2022-11-29T07:49:05.576Z,3.91
2022-11-29T07:51:08.973Z,3.96
2022-11-29T07:53:15.650Z,4.03
2022-11-29T07:55:19.968Z,3.99
2022-11-29T07:57:21.503Z,4.09
2022-11-29T07:59:23.035Z,4.07
2022-11-29T08:01:24.571Z,3.98
2022-11-29T08:03:26.234Z,3.98
2022-11-29T08:05:27.789Z,3.97
2022-11-29T08:07:33.611Z,4.06
2022-11-29T08:09:35.129Z,4.03
2022-11-29T08:11:36.666Z,4.13
2022-11-29T08:13:38.189Z,3.93
2022-11-29T08:15:47.043Z,3.95
2022-11-29T08:17:48.830Z,3.84
2022-11-29T09:53:36.108Z,5.01
2022-11-29T09:55:54.318Z,5.10
2022-11-29T09:57:58.893Z,5.11
2022-11-29T10:00:05.287Z,5.08
2022-11-29T10:02:21.428Z,4.72
2022-11-29T10:04:28.636Z,4.71
2022-11-29T10:06:35.247Z,4.75
2022-11-29T10:08:41.769Z,4.89
2022-11-29T10:10:46.350Z,4.84
2022-11-29T10:12:52.291Z,4.89
2022-11-29T10:15:00.894Z,4.64
2022-11-29T10:17:11.419Z,4.56
2022-11-29T10:19:23.463Z,4.63
2022-11-29T10:21:30.193Z,4.56
2022-11-29T10:23:36.225Z,4.65
2022-11-29T10:25:46.490Z,4.77
2022-11-29T10:27:48.147Z,4.73
2022-11-29T10:29:50.199Z,4.81
2022-11-29T10:31:52.872Z,4.67
2022-11-29T10:33:56.222Z,4.75
2022-11-29T10:36:02.246Z,4.76
2022-11-29T10:40:31.171Z,4.93
2022-11-29T10:42:34.186Z,5.04
2022-11-29T10:44:35.845Z,4.92
2022-11-29T10:46:37.308Z,4.96
2022-11-29T10:48:38.924Z,5.01
2022-11-29T10:50:42.708Z,4.74
2022-11-29T10:52:46.158Z,4.75
2022-11-29T10:54:49.497Z,4.75
2022-11-29T10:56:52.093Z,4.84
2022-11-29T10:58:57.810Z,4.96
2022-11-29T11:01:01.593Z,5.05
2022-11-29T11:03:16.570Z,4.85
2022-11-29T11:05:26.367Z,4.94
2022-11-29T11:07:30.908Z,4.89
2022-11-29T11:09:35.647Z,4.94
2022-11-29T11:11:37.363Z,4.95
2022-11-29T11:13:39.360Z,4.90
2022-11-29T11:15:42.268Z,5.07
2022-11-29T11:17:56.675Z,5.15
2022-11-29T11:19:58.917Z,5.11
2022-11-29T11:22:02.689Z,5.09
2022-11-29T11:24:05.546Z,5.17
2022-11-29T11:26:10.180Z,4.98
2022-11-29T11:28:14.441Z,4.92
2022-11-29T11:30:21.559Z,4.83
2022-11-29T11:32:24.506Z,4.91
2022-11-29T11:34:30.018Z,5.04
2022-11-29T11:36:31.619Z,5.00
2022-11-29T11:38:33.632Z,4.94
2022-11-29T11:40:35.285Z,4.88
2022-11-29T11:42:39.562Z,4.87
2022-11-29T11:44:47.488Z,4.68
2022-11-29T11:46:50.754Z,4.78
2022-11-29T11:48:53.907Z,4.68
2022-11-29T11:50:57.806Z,4.85
2022-11-29T11:53:04.703Z,4.80
2022-11-29T11:55:27.228Z,4.85
2022-11-29T11:57:30.084Z,4.70
2022-11-29T11:59:31.884Z,4.72
2022-11-29T12:01:39.390Z,4.71
2022-11-29T12:03:50.494Z,4.85
2022-11-29T12:05:56.643Z,4.81
2022-11-29T12:08:09.151Z,4.78
2022-11-29T12:10:18.891Z,4.89
2022-11-29T12:12:25.238Z,4.83
2022-11-29T12:14:36.268Z,4.82
2022-11-29T12:16:40.348Z,4.90
2022-11-29T12:18:46.401Z,4.92
2022-11-29T12:20:55.492Z,4.91
2022-11-29T12:23:13.133Z,5.10
2022-11-29T12:25:18.582Z,4.99
2022-11-29T12:27:20.236Z,5.03
2022-11-29T12:29:22.136Z,5.06
2022-11-29T12:31:44.193Z,5.07
2022-11-29T12:33:55.929Z,5.29
2022-11-29T12:36:24.874Z,5.40
2022-11-29T12:38:40.578Z,5.34
2022-11-29T12:40:53.948Z,5.20
2022-11-29T12:43:03.174Z,5.25
2022-11-29T12:45:22.031Z,5.28
2022-11-29T12:47:37.169Z,5.28
2022-11-29T12:49:44.498Z,5.30
2022-11-29T12:51:57.917Z,5.29
2022-11-29T12:54:22.330Z,5.23
2022-11-29T12:56:27.162Z,5.08
2022-11-29T12:58:33.127Z,5.24
2022-11-29T13:00:44.806Z,5.21
2022-11-29T13:03:04.704Z,5.32
2022-11-29T13:05:14.839Z,5.30
2022-11-29T13:07:26.944Z,5.40
2022-11-29T13:09:48.157Z,5.35
2022-11-29T13:11:56.517Z,5.51
2022-11-29T13:14:34.820Z,5.52
2022-11-29T13:16:40.294Z,5.26
2022-11-29T13:18:49.332Z,5.12
2022-11-29T13:20:58.500Z,5.34
2022-11-29T13:23:09.375Z,5.28
2022-11-29T13:25:17.070Z,5.25
2022-11-29T13:27:23.287Z,5.27
2022-11-29T13:29:25.857Z,5.24
2022-11-29T13:31:27.781Z,5.23
2022-11-29T13:33:34.436Z,5.16
2022-11-29T13:35:41.768Z,5.26
2022-11-29T13:37:51.988Z,5.18
2022-11-29T13:40:13.833Z,5.24
2022-11-29T13:42:19.663Z,5.21
2022-11-29T13:44:30.548Z,5.17
2022-11-29T13:46:41.941Z,5.15
2022-11-29T13:48:48.381Z,5.23
2022-11-29T13:50:49.940Z,5.27
2022-11-29T13:53:03.046Z,5.28
2022-11-29T13:55:19.100Z,5.35
2022-11-29T13:57:20.656Z,5.35
2022-11-29T13:59:27.151Z,5.38
2022-11-29T14:01:28.818Z,5.27
2022-11-29T14:03:32.338Z,5.26
2022-11-29T14:05:39.257Z,5.20
2022-11-29T14:08:24.671Z,5.26
2022-11-29T14:10:29.348Z,5.13
2022-11-29T14:12:36.914Z,5.03
2022-11-29T14:14:48.185Z,5.01
2022-11-29T14:16:55.412Z,4.96
2022-11-29T14:19:06.680Z,5.09
2022-11-29T14:21:08.572Z,5.12
2022-11-29T14:23:15.705Z,5.04
2022-11-29T14:25:50.641Z,5.13
2022-11-29T14:27:57.652Z,5.19
2022-11-29T14:29:59.244Z,5.25
2022-11-29T14:32:00.895Z,5.24
2022-11-29T14:34:06.215Z,5.35
2022-11-29T14:36:23.495Z,5.32
2022-11-29T14:38:31.481Z,5.33
2022-11-29T14:40:35.456Z,5.25
2022-11-29T14:42:46.138Z,5.19
2022-11-29T14:44:51.976Z,5.22
2022-11-29T14:47:04.823Z,5.15
2022-11-29T14:49:06.510Z,5.18
2022-11-29T14:51:09.283Z,5.10
2022-11-29T14:53:28.980Z,4.98
2022-11-29T14:55:34.231Z,4.94
2022-11-29T14:58:03.264Z,4.62
2022-11-29T15:00:10.360Z,4.83
2022-11-29T15:02:27.504Z,4.73
2022-11-29T15:04:34.067Z,4.79
2022-11-29T15:06:43.300Z,4.84
2022-11-29T15:08:56.431Z,4.88
2022-11-29T15:11:01.854Z,4.64
2022-11-29T15:13:04.699Z,4.83
2022-11-29T15:15:23.965Z,4.89
2022-11-29T15:17:31.145Z,4.92
2022-11-29T15:19:52.271Z,4.85
2022-11-29T15:22:03.961Z,4.82
2022-11-29T15:24:10.832Z,4.86
2022-11-29T15:26:17.799Z,4.94
2022-11-29T15:28:21.773Z,4.80
2022-11-29T15:30:33.090Z,4.81
2022-11-29T15:32:36.806Z,4.88
2022-11-29T15:34:41.743Z,4.89
2022-11-29T15:36:43.543Z,4.85
2022-11-29T15:38:47.669Z,4.85
2022-11-29T15:40:51.044Z,4.88
2022-11-29T15:42:58.844Z,4.92
2022-11-29T15:45:00.392Z,4.98
2022-11-29T15:47:17.238Z,4.88
2022-11-29T15:49:23.603Z,4.92
2022-11-29T15:51:30.000Z,4.97
2022-11-29T15:53:36.614Z,4.88
2022-11-29T15:55:38.416Z,4.90
2022-11-29T15:57:43.084Z,4.88
2022-11-29T15:59:48.509Z,4.82
2022-11-29T16:01:55.534Z,4.74
2022-11-29T16:03:58.843Z,4.73
2022-11-29T16:06:05.974Z,4.80
2022-11-29T16:08:13.972Z,4.77
2022-11-29T16:10:19.263Z,4.88
2022-11-29T16:12:20.885Z,4.78
2022-11-29T16:14:24.998Z,4.71
2022-11-29T16:16:27.419Z,4.62
2022-11-29T16:18:29.188Z,4.69
2022-11-29T16:20:32.290Z,4.69
2022-11-29T16:22:34.133Z,4.57
2022-11-29T16:24:37.288Z,4.63
2022-11-29T16:26:41.964Z,4.49
2022-11-29T16:28:45.694Z,4.62
2022-11-29T16:30:47.505Z,4.57
2022-11-29T16:32:52.993Z,4.52
2022-11-29T16:34:56.284Z,4.59
2022-11-29T16:37:05.064Z,4.58
2022-11-29T16:39:16.644Z,4.54
2022-11-29T16:41:24.196Z,4.53
2022-11-29T16:43:46.913Z,4.52
2022-11-29T16:45:48.582Z,4.53
2022-11-29T16:47:51.040Z,4.56
2022-11-29T16:50:12.232Z,4.53
2022-11-29T16:52:25.995Z,4.45
2022-11-29T16:54:29.145Z,4.48
2022-11-29T16:56:31.061Z,4.46
2022-11-29T16:58:36.375Z,4.53
2022-11-29T17:00:40.655Z,4.53
2022-11-29T17:02:42.348Z,4.48
2022-11-29T17:04:44.027Z,4.43
2022-11-29T17:06:45.704Z,4.38
2022-11-29T17:08:48.678Z,4.41
2022-11-29T17:10:50.250Z,4.34
2022-11-29T17:12:51.838Z,4.35
2022-11-29T17:14:53.425Z,4.33
2022-11-29T17:16:55.352Z,4.34
2022-11-29T17:18:56.913Z,4.37
2022-11-29T17:20:58.609Z,4.42
2022-11-29T17:23:00.491Z,4.42
2022-11-29T17:25:03.868Z,4.50
2022-11-29T17:27:07.666Z,4.44
2022-11-29T17:29:09.673Z,4.54
2022-11-29T17:31:12.982Z,4.61
2022-11-29T17:33:14.586Z,4.60
2022-11-29T17:35:16.242Z,4.54
2022-11-29T17:37:17.613Z,4.51
2022-11-29T17:39:19.453Z,4.50
2022-11-29T17:41:23.792Z,4.47
2022-11-29T17:43:25.471Z,4.54
2022-11-29T17:45:26.942Z,4.52
2022-11-29T17:47:28.638Z,4.62
2022-11-29T17:49:30.061Z,4.68
2022-11-29T17:53:54.298Z,4.60
2022-11-29T17:56:01.004Z,4.77
2022-11-29T17:58:03.906Z,4.78
2022-11-29T18:00:06.846Z,4.63
2022-11-29T18:02:09.793Z,4.65
2022-11-29T18:04:11.631Z,4.61
2022-11-29T18:06:15.477Z,4.66
2022-11-29T18:08:17.013Z,4.64
2022-11-29T18:10:18.720Z,4.69
2022-11-29T18:12:20.095Z,4.70
2022-11-29T18:14:23.594Z,4.70
2022-11-29T18:16:27.698Z,4.78
2022-11-29T18:18:29.363Z,4.74
2022-11-29T18:20:30.948Z,4.69
2022-11-29T18:22:32.740Z,4.80
2022-11-29T18:24:34.489Z,4.62
2022-11-29T18:26:37.111Z,4.64
2022-11-29T18:28:40.092Z,4.55
2022-11-29T18:30:43.074Z,4.58
2022-11-29T18:32:44.668Z,4.60
2022-11-29T18:34:46.463Z,4.70
2022-11-29T18:36:48.996Z,4.55
2022-11-29T18:38:55.438Z,4.69
2022-11-29T18:40:57.050Z,4.72
2022-11-29T18:42:58.720Z,4.71
2022-11-29T18:45:00.090Z,4.73
2022-11-29T18:47:03.128Z,4.79
2022-11-29T18:49:07.084Z,4.82
2022-11-29T18:51:10.628Z,4.86
2022-11-29T18:53:12.874Z,4.85
2022-11-29T18:55:14.609Z,4.89
2022-11-29T18:57:16.172Z,4.95
2022-11-29T18:59:18.010Z,4.98
2022-11-29T19:01:20.098Z,4.97
2022-11-29T19:03:23.069Z,5.00
2022-11-29T19:05:24.671Z,4.91
2022-11-29T19:07:26.098Z,4.98
2022-11-29T19:09:27.714Z,5.01
2022-11-29T19:11:31.335Z,5.03
2022-11-29T19:13:33.631Z,4.94
2022-11-29T19:15:35.277Z,5.06
2022-11-29T19:17:42.817Z,4.96
2022-11-29T19:19:46.306Z,4.95
2022-11-29T19:21:48.156Z,4.96
2022-11-29T19:23:52.001Z,4.91
2022-11-29T19:25:53.760Z,4.84
2022-11-29T19:27:55.338Z,4.92
2022-11-29T19:29:56.910Z,5.03
2022-11-29T19:31:58.472Z,5.04
2022-11-29T19:33:59.838Z,5.07
2022-11-29T19:36:05.960Z,4.99
2022-11-29T19:38:07.534Z,5.03
2022-11-29T19:40:09.347Z,5.02
2022-11-29T19:42:12.828Z,4.97
2022-11-29T19:44:14.652Z,4.96
2022-11-29T19:46:18.298Z,5.00
2022-11-29T19:48:19.942Z,4.89
2022-11-29T19:50:21.601Z,4.96
2022-11-29T19:52:24.336Z,4.91
2022-11-29T19:54:25.962Z,4.87
2022-11-29T19:56:28.027Z,4.81
2022-11-29T19:58:29.589Z,4.84
2022-11-29T20:00:31.152Z,4.86
2022-11-29T20:02:32.865Z,4.88
2022-11-29T20:04:34.260Z,4.87
2022-11-29T20:06:35.897Z,4.93
2022-11-29T20:08:39.125Z,4.85
2022-11-29T20:10:40.701Z,4.89
2022-11-29T20:12:42.300Z,4.93
2022-11-29T20:14:43.868Z,4.95
2022-11-29T20:16:45.421Z,4.87
2022-11-29T20:18:50.918Z,4.89
2022-11-29T20:20:52.899Z,4.95
2022-11-29T20:22:54.429Z,5.00
2022-11-29T20:24:57.561Z,4.92
2022-11-29T20:26:59.101Z,5.01
2022-11-29T20:29:00.845Z,5.01
2022-11-29T20:31:04.919Z,5.02
2022-11-29T20:33:06.674Z,4.86
2022-11-29T20:35:09.083Z,4.87
2022-11-29T20:37:30.283Z,4.67
2022-11-29T20:39:40.037Z,4.63
2022-11-29T20:41:52.223Z,4.63
2022-11-29T20:43:56.704Z,4.57
2022-11-29T20:45:58.597Z,4.59
2022-11-29T20:48:05.485Z,4.63
2022-11-29T20:50:13.378Z,4.72
2022-11-29T20:52:33.447Z,4.74
2022-11-29T20:54:35.085Z,4.68
2022-11-29T20:56:36.745Z,4.64
2022-11-29T20:58:39.514Z,4.65
2022-11-29T21:00:41.091Z,4.73
2022-11-29T21:02:42.743Z,4.72
2022-11-29T21:04:44.437Z,4.64
2022-11-29T21:06:46.134Z,4.77
2022-11-29T21:08:47.776Z,4.76
2022-11-29T21:10:49.553Z,4.74
2022-11-29T21:12:51.783Z,4.65
2022-11-29T21:14:55.486Z,4.73
2022-11-29T21:16:57.758Z,4.69
2022-11-29T21:19:02.132Z,4.76
2022-11-29T21:21:13.928Z,4.70
2022-11-29T21:23:22.471Z,4.62
2022-11-29T21:25:35.702Z,4.51
2022-11-29T21:27:37.867Z,4.66
2022-11-29T21:29:40.193Z,4.65
2022-11-29T21:31:44.092Z,4.62
2022-11-29T21:33:46.188Z,4.80
2022-11-29T21:35:52.327Z,4.78
2022-11-29T21:37:58.320Z,4.74
2022-11-29T21:40:02.982Z,4.72
2022-11-29T21:42:05.206Z,4.59
2022-11-29T21:44:07.951Z,4.58
2022-11-29T21:46:10.052Z,4.57
2022-11-29T21:48:12.818Z,4.62
2022-11-29T21:50:14.551Z,4.49
2022-11-29T21:52:21.998Z,4.57
2022-11-29T21:54:24.215Z,4.65
2022-11-29T21:56:27.840Z,5.01
2022-11-29T21:58:30.843Z,5.37
2022-11-29T22:00:37.244Z,5.29
2022-11-29T22:02:39.337Z,5.39
2022-11-29T22:04:42.438Z,5.08
2022-11-29T22:06:45.901Z,4.95
2022-11-29T22:08:48.256Z,4.92
2022-11-29T22:10:49.901Z,4.85
2022-11-29T22:12:52.606Z,4.75
2022-11-29T22:14:54.475Z,4.82
2022-11-29T22:16:57.810Z,4.73
2022-11-29T22:18:59.472Z,4.68
2022-11-29T22:21:02.794Z,4.57
2022-11-29T22:23:04.364Z,4.59
2022-11-29T22:25:06.265Z,4.58
2022-11-29T22:27:07.813Z,4.50
2022-11-29T22:29:10.369Z,4.45
2022-11-29T22:31:13.433Z,4.42
2022-11-29T22:33:15.143Z,4.27
2022-11-29T22:35:16.533Z,4.45
2022-11-29T22:37:19.488Z,4.41
2022-11-29T22:39:21.337Z,4.51
2022-11-29T22:41:23.006Z,4.51
2022-11-29T22:43:24.468Z,4.53
2022-11-29T22:45:25.986Z,4.60
2022-11-29T22:47:27.688Z,4.60
2022-11-29T22:49:29.079Z,4.47
2022-11-29T22:51:32.367Z,4.52
2022-11-29T22:53:36.283Z,4.57
2022-11-29T22:55:37.844Z,4.50
2022-11-29T22:57:39.359Z,4.53
2022-11-29T22:59:41.048Z,4.53
2022-11-29T23:01:42.935Z,4.48
2022-11-29T23:03:46.682Z,4.47
2022-11-29T23:05:48.271Z,4.54
2022-11-29T23:07:53.917Z,4.58
2022-11-29T23:09:56.959Z,4.54
2022-11-29T23:11:58.548Z,4.52
2022-11-29T23:14:00.085Z,4.55
2022-11-29T23:16:02.884Z,4.62
2022-11-29T23:18:04.713Z,4.48
2022-11-29T23:20:07.856Z,4.58
2022-11-29T23:22:09.390Z,4.65
2022-11-29T23:24:10.989Z,4.73
2022-11-29T23:26:19.872Z,4.70
2022-11-29T23:28:21.453Z,4.60
2022-11-29T23:30:23.319Z,4.60
2022-11-29T23:32:24.927Z,4.54
2022-11-29T23:34:26.861Z,4.50
2022-11-29T23:36:28.723Z,4.48
2022-11-29T23:38:30.716Z,4.56
2022-11-29T23:40:32.263Z,4.55
2022-11-29T23:42:35.197Z,4.51
2022-11-29T23:44:36.723Z,4.46
2022-11-29T23:46:38.373Z,4.46
2022-11-29T23:48:39.937Z,4.47
2022-11-29T23:50:42.343Z,4.46
2022-11-29T23:52:43.997Z,4.45
2022-11-29T23:54:45.527Z,4.57
2022-11-29T23:56:47.299Z,4.54
2022-11-29T23:58:50.258Z,4.44
